sensor_id;sensor_type;location;lat;lon;timestamp;pressure;altitude;pressure_sealevel;temperature;humidity
65010;BME280;51556;50.002;22.014;2023-11-21T00:01:48;98361.87;;;6.95;80.89
65010;BME280;51556;50.002;22.014;2023-11-21T00:04:13;98359.83;;;7.00;80.53
65010;BME280;51556;50.002;22.014;2023-11-21T00:06:40;98359.83;;;7.05;80.54
65010;BME280;51556;50.002;22.014;2023-11-21T00:09:06;98360.42;;;7.09;80.87
65010;BME280;51556;50.002;22.014;2023-11-21T00:11:33;98359.64;;;7.12;80.73
65010;BME280;51556;50.002;22.014;2023-11-21T00:13:59;98357.98;;;7.09;80.54
65010;BME280;51556;50.002;22.014;2023-11-21T00:16:25;98359.08;;;7.07;80.60
65010;BME280;51556;50.002;22.014;2023-11-21T00:18:50;98358.80;;;7.05;80.92
65010;BME280;51556;50.002;22.014;2023-11-21T00:21:16;98362.39;;;7.07;80.92
65010;BME280;51556;50.002;22.014;2023-11-21T00:23:42;98362.38;;;7.08;80.84
65010;BME280;51556;50.002;22.014;2023-11-21T00:26:08;98366.90;;;7.09;80.74
65010;BME280;51556;50.002;22.014;2023-11-21T00:28:33;98367.40;;;7.10;80.88
65010;BME280;51556;50.002;22.014;2023-11-21T00:30:58;98367.89;;;7.05;80.88
65010;BME280;51556;50.002;22.014;2023-11-21T00:33:24;98366.90;;;7.03;81.20
65010;BME280;51556;50.002;22.014;2023-11-21T00:35:50;98369.65;;;7.05;81.18
65010;BME280;51556;50.002;22.014;2023-11-21T00:38:15;98374.08;;;7.03;81.48
65010;BME280;51556;50.002;22.014;2023-11-21T00:40:45;98372.42;;;7.05;81.43
65010;BME280;51556;50.002;22.014;2023-11-21T00:43:11;98374.44;;;7.08;81.24
65010;BME280;51556;50.002;22.014;2023-11-21T00:45:36;98377.67;;;7.06;81.12
65010;BME280;51556;50.002;22.014;2023-11-21T00:48:02;98370.73;;;7.04;81.52
65010;BME280;51556;50.002;22.014;2023-11-21T00:50:30;98371.23;;;7.10;81.51
65010;BME280;51556;50.002;22.014;2023-11-21T00:52:55;98368.96;;;7.17;81.46
65010;BME280;51556;50.002;22.014;2023-11-21T00:55:21;98370.95;;;7.21;81.42
65010;BME280;51556;50.002;22.014;2023-11-21T00:57:46;98365.90;;;7.26;81.38
65010;BME280;51556;50.002;22.014;2023-11-21T01:00:13;98365.80;;;7.30;81.58
65010;BME280;51556;50.002;22.014;2023-11-21T01:02:45;98363.63;;;7.39;81.51
65010;BME280;51556;50.002;22.014;2023-11-21T01:05:12;98359.92;;;7.46;81.14
65010;BME280;51556;50.002;22.014;2023-11-21T01:07:37;98359.66;;;7.48;81.19
65010;BME280;51556;50.002;22.014;2023-11-21T01:10:03;98361.39;;;7.50;80.90
65010;BME280;51556;50.002;22.014;2023-11-21T01:12:34;98359.91;;;7.52;80.70
65010;BME280;51556;50.002;22.014;2023-11-21T01:15:00;98363.54;;;7.53;80.65
65010;BME280;51556;50.002;22.014;2023-11-21T01:17:26;98358.96;;;7.55;80.76
65010;BME280;51556;50.002;22.014;2023-11-21T01:19:52;98355.50;;;7.53;80.55
65010;BME280;51556;50.002;22.014;2023-11-21T01:22:17;98357.55;;;7.55;80.78
65010;BME280;51556;50.002;22.014;2023-11-21T01:24:45;98357.86;;;7.56;80.57
65010;BME280;51556;50.002;22.014;2023-11-21T01:27:10;98355.17;;;7.58;80.58
65010;BME280;51556;50.002;22.014;2023-11-21T01:29:36;98356.04;;;7.58;80.71
65010;BME280;51556;50.002;22.014;2023-11-21T01:32:02;98357.02;;;7.61;81.01
65010;BME280;51556;50.002;22.014;2023-11-21T01:34:29;98360.08;;;7.64;80.74
65010;BME280;51556;50.002;22.014;2023-11-21T01:36:54;98359.79;;;7.62;80.82
65010;BME280;51556;50.002;22.014;2023-11-21T01:39:19;98360.85;;;7.62;80.33
65010;BME280;51556;50.002;22.014;2023-11-21T01:41:50;98358.86;;;7.58;80.54
65010;BME280;51556;50.002;22.014;2023-11-21T01:44:16;98362.58;;;7.56;81.07
65010;BME280;51556;50.002;22.014;2023-11-21T01:46:42;98361.23;;;7.54;80.97
65010;BME280;51556;50.002;22.014;2023-11-21T01:49:09;98359.95;;;7.50;80.52
65010;BME280;51556;50.002;22.014;2023-11-21T01:51:41;98357.41;;;7.48;81.19
65010;BME280;51556;50.002;22.014;2023-11-21T01:54:08;98360.16;;;7.49;80.95
65010;BME280;51556;50.002;22.014;2023-11-21T01:56:34;98358.73;;;7.50;80.70
65010;BME280;51556;50.002;22.014;2023-11-21T01:59:01;98360.06;;;7.47;80.63
65010;BME280;51556;50.002;22.014;2023-11-21T02:01:26;98357.43;;;7.41;80.78
65010;BME280;51556;50.002;22.014;2023-11-21T02:03:51;98359.30;;;7.37;81.08
65010;BME280;51556;50.002;22.014;2023-11-21T02:06:18;98357.46;;;7.34;81.27
65010;BME280;51556;50.002;22.014;2023-11-21T02:08:44;98361.05;;;7.31;81.51
65010;BME280;51556;50.002;22.014;2023-11-21T02:11:10;98366.66;;;7.31;81.50
65010;BME280;51556;50.002;22.014;2023-11-21T02:13:39;98369.24;;;7.25;81.49
65010;BME280;51556;50.002;22.014;2023-11-21T02:16:09;98370.10;;;7.20;81.76
65010;BME280;51556;50.002;22.014;2023-11-21T02:18:35;98371.59;;;7.17;81.51
65010;BME280;51556;50.002;22.014;2023-11-21T02:21:04;98372.82;;;7.17;82.15
65010;BME280;51556;50.002;22.014;2023-11-21T02:23:29;98372.05;;;7.13;82.36
65010;BME280;51556;50.002;22.014;2023-11-21T02:25:55;98369.81;;;7.11;82.35
65010;BME280;51556;50.002;22.014;2023-11-21T02:28:20;98371.38;;;7.12;82.18
65010;BME280;51556;50.002;22.014;2023-11-21T02:30:52;98371.27;;;7.16;82.34
65010;BME280;51556;50.002;22.014;2023-11-21T02:33:24;98373.12;;;7.19;82.56
65010;BME280;51556;50.002;22.014;2023-11-21T02:35:49;98374.27;;;7.21;82.59
65010;BME280;51556;50.002;22.014;2023-11-21T02:38:21;98375.34;;;7.27;82.20
65010;BME280;51556;50.002;22.014;2023-11-21T02:40:46;98376.59;;;7.33;82.27
65010;BME280;51556;50.002;22.014;2023-11-21T02:43:12;98373.34;;;7.36;81.96
65010;BME280;51556;50.002;22.014;2023-11-21T02:45:37;98371.37;;;7.43;82.16
65010;BME280;51556;50.002;22.014;2023-11-21T02:48:03;98368.25;;;7.48;81.88
65010;BME280;51556;50.002;22.014;2023-11-21T02:50:29;98369.48;;;7.48;81.74
65010;BME280;51556;50.002;22.014;2023-11-21T02:52:55;98372.61;;;7.49;81.65
65010;BME280;51556;50.002;22.014;2023-11-21T02:55:22;98371.94;;;7.48;81.91
65010;BME280;51556;50.002;22.014;2023-11-21T02:57:50;98368.77;;;7.49;81.87
65010;BME280;51556;50.002;22.014;2023-11-21T03:00:16;98370.64;;;7.44;82.10
65010;BME280;51556;50.002;22.014;2023-11-21T03:02:42;98373.73;;;7.41;81.82
65010;BME280;51556;50.002;22.014;2023-11-21T03:05:08;98377.42;;;7.40;81.95
65010;BME280;51556;50.002;22.014;2023-11-21T03:07:34;98379.55;;;7.39;82.06
65010;BME280;51556;50.002;22.014;2023-11-21T03:10:00;98378.77;;;7.42;82.30
65010;BME280;51556;50.002;22.014;2023-11-21T03:12:26;98378.29;;;7.46;82.41
65010;BME280;51556;50.002;22.014;2023-11-21T03:14:51;98376.35;;;7.47;82.13
65010;BME280;51556;50.002;22.014;2023-11-21T03:17:17;98376.52;;;7.47;82.17
65010;BME280;51556;50.002;22.014;2023-11-21T03:19:42;98373.33;;;7.48;82.19
65010;BME280;51556;50.002;22.014;2023-11-21T03:22:07;98372.10;;;7.48;82.31
65010;BME280;51556;50.002;22.014;2023-11-21T03:24:34;98371.52;;;7.50;82.33
65010;BME280;51556;50.002;22.014;2023-11-21T03:26:59;98370.70;;;7.55;82.34
65010;BME280;51556;50.002;22.014;2023-11-21T03:29:25;98372.91;;;7.56;82.15
65010;BME280;51556;50.002;22.014;2023-11-21T03:31:51;98370.80;;;7.57;81.97
65010;BME280;51556;50.002;22.014;2023-11-21T03:34:23;98368.71;;;7.56;82.22
65010;BME280;51556;50.002;22.014;2023-11-21T03:36:49;98367.33;;;7.56;81.62
65010;BME280;51556;50.002;22.014;2023-11-21T03:39:14;98366.84;;;7.55;82.27
65010;BME280;51556;50.002;22.014;2023-11-21T03:41:39;98370.94;;;7.58;82.21
65010;BME280;51556;50.002;22.014;2023-11-21T03:44:05;98371.44;;;7.65;82.14
65010;BME280;51556;50.002;22.014;2023-11-21T03:46:30;98375.62;;;7.72;81.99
65010;BME280;51556;50.002;22.014;2023-11-21T03:48:55;98376.05;;;7.75;81.84
65010;BME280;51556;50.002;22.014;2023-11-21T03:51:21;98376.26;;;7.80;81.58
65010;BME280;51556;50.002;22.014;2023-11-21T03:53:47;98377.02;;;7.83;81.94
65010;BME280;51556;50.002;22.014;2023-11-21T03:56:13;98375.78;;;7.83;81.10
65010;BME280;51556;50.002;22.014;2023-11-21T03:58:39;98379.48;;;7.77;81.39
65010;BME280;51556;50.002;22.014;2023-11-21T04:01:05;98376.17;;;7.71;81.43
65010;BME280;51556;50.002;22.014;2023-11-21T04:03:30;98379.80;;;7.67;81.46
65010;BME280;51556;50.002;22.014;2023-11-21T04:05:56;98379.45;;;7.67;81.92
65010;BME280;51556;50.002;22.014;2023-11-21T04:08:22;98383.98;;;7.67;82.17
65010;BME280;51556;50.002;22.014;2023-11-21T04:10:47;98385.83;;;7.70;82.07
65010;BME280;51556;50.002;22.014;2023-11-21T04:13:13;98382.51;;;7.70;82.14
65010;BME280;51556;50.002;22.014;2023-11-21T04:15:39;98380.64;;;7.74;82.27
65010;BME280;51556;50.002;22.014;2023-11-21T04:18:04;98382.20;;;7.80;81.85
65010;BME280;51556;50.002;22.014;2023-11-21T04:20:30;98384.29;;;7.86;82.48
65010;BME280;51556;50.002;22.014;2023-11-21T04:22:55;98381.79;;;7.87;81.80
65010;BME280;51556;50.002;22.014;2023-11-21T04:25:21;98388.52;;;7.85;81.38
65010;BME280;51556;50.002;22.014;2023-11-21T04:27:48;98385.63;;;7.82;81.78
65010;BME280;51556;50.002;22.014;2023-11-21T04:30:14;98384.61;;;7.76;81.97
65010;BME280;51556;50.002;22.014;2023-11-21T04:32:40;98384.84;;;7.68;82.19
65010;BME280;51556;50.002;22.014;2023-11-21T04:35:07;98386.85;;;7.65;81.87
65010;BME280;51556;50.002;22.014;2023-11-21T04:37:33;98386.29;;;7.60;82.62
65010;BME280;51556;50.002;22.014;2023-11-21T04:39:59;98389.56;;;7.56;82.64
65010;BME280;51556;50.002;22.014;2023-11-21T04:42:24;98393.84;;;7.54;82.94
65010;BME280;51556;50.002;22.014;2023-11-21T04:44:50;98390.87;;;7.53;82.87
65010;BME280;51556;50.002;22.014;2023-11-21T04:47:15;98394.42;;;7.51;83.17
65010;BME280;51556;50.002;22.014;2023-11-21T04:49:42;98400.25;;;7.50;83.29
65010;BME280;51556;50.002;22.014;2023-11-21T04:52:08;98397.42;;;7.45;83.05
65010;BME280;51556;50.002;22.014;2023-11-21T04:54:35;98399.17;;;7.44;83.11
65010;BME280;51556;50.002;22.014;2023-11-21T04:57:01;98400.14;;;7.47;83.22
65010;BME280;51556;50.002;22.014;2023-11-21T04:59:26;98400.25;;;7.49;83.52
65010;BME280;51556;50.002;22.014;2023-11-21T05:01:53;98400.85;;;7.47;83.52
65010;BME280;51556;50.002;22.014;2023-11-21T05:04:19;98403.79;;;7.48;84.06
65010;BME280;51556;50.002;22.014;2023-11-21T05:06:46;98401.02;;;7.54;84.35
65010;BME280;51556;50.002;22.014;2023-11-21T05:09:13;98402.96;;;7.59;83.90
65010;BME280;51556;50.002;22.014;2023-11-21T05:11:38;98400.83;;;7.66;84.47
65010;BME280;51556;50.002;22.014;2023-11-21T05:14:06;98398.83;;;7.69;83.64
65010;BME280;51556;50.002;22.014;2023-11-21T05:16:32;98395.96;;;7.77;84.17
65010;BME280;51556;50.002;22.014;2023-11-21T05:18:57;98401.16;;;7.84;83.42
65010;BME280;51556;50.002;22.014;2023-11-21T05:21:28;98400.63;;;7.84;83.43
65010;BME280;51556;50.002;22.014;2023-11-21T05:23:57;98402.42;;;7.83;83.32
65010;BME280;51556;50.002;22.014;2023-11-21T05:26:23;98402.68;;;7.86;83.28
65010;BME280;51556;50.002;22.014;2023-11-21T05:28:48;98403.80;;;7.89;83.44
65010;BME280;51556;50.002;22.014;2023-11-21T05:31:14;98401.08;;;7.87;82.84
65010;BME280;51556;50.002;22.014;2023-11-21T05:33:40;98404.13;;;7.84;82.95
65010;BME280;51556;50.002;22.014;2023-11-21T05:36:07;98405.13;;;7.86;83.59
65010;BME280;51556;50.002;22.014;2023-11-21T05:38:33;98408.06;;;7.87;83.14
65010;BME280;51556;50.002;22.014;2023-11-21T05:40:59;98408.25;;;7.87;83.07
65010;BME280;51556;50.002;22.014;2023-11-21T05:43:24;98409.31;;;7.87;83.39
65010;BME280;51556;50.002;22.014;2023-11-21T05:45:49;98412.75;;;7.89;82.97
65010;BME280;51556;50.002;22.014;2023-11-21T05:48:15;98415.74;;;7.95;83.33
65010;BME280;51556;50.002;22.014;2023-11-21T05:50:41;98412.66;;;7.98;83.36
65010;BME280;51556;50.002;22.014;2023-11-21T05:53:06;98416.19;;;7.97;83.02
65010;BME280;51556;50.002;22.014;2023-11-21T05:55:32;98414.54;;;8.00;83.36
65010;BME280;51556;50.002;22.014;2023-11-21T05:57:58;98416.70;;;8.03;82.94
65010;BME280;51556;50.002;22.014;2023-11-21T06:00:23;98419.14;;;8.04;82.68
65010;BME280;51556;50.002;22.014;2023-11-21T06:02:51;98423.42;;;8.01;82.85
65010;BME280;51556;50.002;22.014;2023-11-21T06:05:23;98421.89;;;8.00;82.51
65010;BME280;51556;50.002;22.014;2023-11-21T06:07:50;98422.71;;;7.96;82.50
65010;BME280;51556;50.002;22.014;2023-11-21T06:10:16;98425.70;;;7.96;82.75
65010;BME280;51556;50.002;22.014;2023-11-21T06:12:43;98431.95;;;7.92;82.75
65010;BME280;51556;50.002;22.014;2023-11-21T06:15:09;98433.06;;;7.89;83.09
65010;BME280;51556;50.002;22.014;2023-11-21T06:17:39;98433.35;;;7.92;83.30
65010;BME280;51556;50.002;22.014;2023-11-21T06:20:09;98433.24;;;7.89;82.98
65010;BME280;51556;50.002;22.014;2023-11-21T06:22:39;98437.98;;;7.83;83.24
65010;BME280;51556;50.002;22.014;2023-11-21T06:25:05;98432.34;;;7.84;83.47
65010;BME280;51556;50.002;22.014;2023-11-21T06:27:36;98437.77;;;7.90;83.27
65010;BME280;51556;50.002;22.014;2023-11-21T06:30:02;98439.34;;;7.90;83.00
65010;BME280;51556;50.002;22.014;2023-11-21T06:32:29;98442.37;;;7.89;83.12
65010;BME280;51556;50.002;22.014;2023-11-21T06:34:58;98447.19;;;7.92;83.39
65010;BME280;51556;50.002;22.014;2023-11-21T06:37:28;98448.64;;;7.96;83.30
65010;BME280;51556;50.002;22.014;2023-11-21T06:39:54;98450.82;;;7.99;83.52
65010;BME280;51556;50.002;22.014;2023-11-21T06:42:20;98452.05;;;8.05;83.19
65010;BME280;51556;50.002;22.014;2023-11-21T06:44:46;98450.23;;;8.08;82.88
65010;BME280;51556;50.002;22.014;2023-11-21T06:47:12;98454.41;;;8.09;83.06
65010;BME280;51556;50.002;22.014;2023-11-21T06:49:37;98456.67;;;8.10;82.96
65010;BME280;51556;50.002;22.014;2023-11-21T06:52:04;98455.09;;;8.10;82.99
65010;BME280;51556;50.002;22.014;2023-11-21T06:54:33;98461.20;;;8.11;82.97
65010;BME280;51556;50.002;22.014;2023-11-21T06:56:58;98464.23;;;8.15;82.85
65010;BME280;51556;50.002;22.014;2023-11-21T06:59:24;98464.81;;;8.18;83.02
65010;BME280;51556;50.002;22.014;2023-11-21T07:01:50;98467.40;;;8.19;82.74
65010;BME280;51556;50.002;22.014;2023-11-21T07:04:15;98467.17;;;8.16;82.68
65010;BME280;51556;50.002;22.014;2023-11-21T07:06:41;98466.05;;;8.18;83.00
65010;BME280;51556;50.002;22.014;2023-11-21T07:09:06;98469.12;;;8.20;82.80
65010;BME280;51556;50.002;22.014;2023-11-21T07:11:34;98464.51;;;8.17;82.64
65010;BME280;51556;50.002;22.014;2023-11-21T07:13:59;98468.06;;;8.10;82.74
65010;BME280;51556;50.002;22.014;2023-11-21T07:16:27;98468.26;;;8.03;83.03
65010;BME280;51556;50.002;22.014;2023-11-21T07:18:55;98466.54;;;8.01;83.34
65010;BME280;51556;50.002;22.014;2023-11-21T07:21:20;98463.63;;;7.99;83.47
65010;BME280;51556;50.002;22.014;2023-11-21T07:23:46;98470.84;;;7.98;83.31
65010;BME280;51556;50.002;22.014;2023-11-21T07:26:11;98473.84;;;7.97;83.63
65010;BME280;51556;50.002;22.014;2023-11-21T07:28:37;98469.41;;;7.99;83.63
65010;BME280;51556;50.002;22.014;2023-11-21T07:31:03;98469.34;;;8.02;83.59
65010;BME280;51556;50.002;22.014;2023-11-21T07:33:28;98470.96;;;8.00;83.81
65010;BME280;51556;50.002;22.014;2023-11-21T07:35:54;98473.88;;;8.02;84.01
65010;BME280;51556;50.002;22.014;2023-11-21T07:38:19;98473.00;;;8.02;83.88
65010;BME280;51556;50.002;22.014;2023-11-21T07:40:45;98476.05;;;8.00;84.29
65010;BME280;51556;50.002;22.014;2023-11-21T07:43:10;98478.98;;;8.02;83.81
65010;BME280;51556;50.002;22.014;2023-11-21T07:45:36;98477.80;;;8.00;84.29
65010;BME280;51556;50.002;22.014;2023-11-21T07:48:01;98478.62;;;8.02;83.76
65010;BME280;51556;50.002;22.014;2023-11-21T07:50:28;98484.59;;;8.01;83.96
65010;BME280;51556;50.002;22.014;2023-11-21T07:52:54;98480.95;;;8.00;84.03
65010;BME280;51556;50.002;22.014;2023-11-21T07:55:20;98481.36;;;8.04;84.26
65010;BME280;51556;50.002;22.014;2023-11-21T07:57:45;98482.77;;;8.04;84.03
65010;BME280;51556;50.002;22.014;2023-11-21T08:00:11;98486.92;;;8.06;84.50
65010;BME280;51556;50.002;22.014;2023-11-21T08:02:40;98488.63;;;8.08;84.22
65010;BME280;51556;50.002;22.014;2023-11-21T08:05:12;98488.35;;;8.11;84.26
65010;BME280;51556;50.002;22.014;2023-11-21T08:07:38;98491.02;;;8.10;84.33
65010;BME280;51556;50.002;22.014;2023-11-21T08:10:03;98495.80;;;8.15;84.33
65010;BME280;51556;50.002;22.014;2023-11-21T08:12:30;98498.17;;;8.11;84.54
65010;BME280;51556;50.002;22.014;2023-11-21T08:14:56;98496.88;;;8.07;84.62
65010;BME280;51556;50.002;22.014;2023-11-21T08:17:21;98499.80;;;8.02;84.85
65010;BME280;51556;50.002;22.014;2023-11-21T08:19:47;98499.23;;;7.98;84.92
65010;BME280;51556;50.002;22.014;2023-11-21T08:22:15;98498.71;;;7.98;85.34
65010;BME280;51556;50.002;22.014;2023-11-21T08:24:43;98502.95;;;8.03;85.53
65010;BME280;51556;50.002;22.014;2023-11-21T08:27:09;98501.38;;;8.03;85.54
65010;BME280;51556;50.002;22.014;2023-11-21T08:29:34;98503.05;;;8.06;85.46
65010;BME280;51556;50.002;22.014;2023-11-21T08:32:02;98498.36;;;8.11;85.65
65010;BME280;51556;50.002;22.014;2023-11-21T08:34:27;98500.38;;;8.19;85.78
65010;BME280;51556;50.002;22.014;2023-11-21T08:36:54;98499.05;;;8.22;85.67
65010;BME280;51556;50.002;22.014;2023-11-21T08:39:19;98500.55;;;8.24;85.70
65010;BME280;51556;50.002;22.014;2023-11-21T08:41:44;98502.60;;;8.26;85.08
65010;BME280;51556;50.002;22.014;2023-11-21T08:44:11;98500.66;;;8.27;85.74
65010;BME280;51556;50.002;22.014;2023-11-21T08:46:36;98504.29;;;8.23;85.42
65010;BME280;51556;50.002;22.014;2023-11-21T08:49:03;98507.33;;;8.21;85.66
65010;BME280;51556;50.002;22.014;2023-11-21T08:51:29;98509.73;;;8.28;86.02
65010;BME280;51556;50.002;22.014;2023-11-21T08:53:54;98511.40;;;8.31;85.83
65010;BME280;51556;50.002;22.014;2023-11-21T08:56:24;98512.09;;;8.32;85.84
65010;BME280;51556;50.002;22.014;2023-11-21T08:58:50;98511.79;;;8.37;85.63
65010;BME280;51556;50.002;22.014;2023-11-21T09:01:15;98510.42;;;8.41;85.58
65010;BME280;51556;50.002;22.014;2023-11-21T09:03:41;98513.22;;;8.48;85.35
65010;BME280;51556;50.002;22.014;2023-11-21T09:06:07;98512.31;;;8.54;85.30
65010;BME280;51556;50.002;22.014;2023-11-21T09:08:35;98512.92;;;8.57;85.14
65010;BME280;51556;50.002;22.014;2023-11-21T09:11:00;98513.58;;;8.58;85.37
65010;BME280;51556;50.002;22.014;2023-11-21T09:13:25;98516.30;;;8.61;85.42
65010;BME280;51556;50.002;22.014;2023-11-21T09:15:51;98514.77;;;8.65;85.36
65010;BME280;51556;50.002;22.014;2023-11-21T09:18:16;98515.75;;;8.67;84.86
65010;BME280;51556;50.002;22.014;2023-11-21T09:20:42;98514.74;;;8.66;84.58
65010;BME280;51556;50.002;22.014;2023-11-21T09:23:11;98514.80;;;8.64;85.11
65010;BME280;51556;50.002;22.014;2023-11-21T09:25:37;98511.95;;;8.65;84.81
65010;BME280;51556;50.002;22.014;2023-11-21T09:28:04;98514.51;;;8.68;84.77
65010;BME280;51556;50.002;22.014;2023-11-21T09:30:34;98510.80;;;8.69;84.99
65010;BME280;51556;50.002;22.014;2023-11-21T09:33:00;98507.39;;;8.71;85.08
65010;BME280;51556;50.002;22.014;2023-11-21T09:35:29;98507.11;;;8.75;85.38
65010;BME280;51556;50.002;22.014;2023-11-21T09:37:55;98505.81;;;8.77;85.13
65010;BME280;51556;50.002;22.014;2023-11-21T09:40:22;98506.29;;;8.73;84.83
65010;BME280;51556;50.002;22.014;2023-11-21T09:42:55;98502.52;;;8.76;85.23
65010;BME280;51556;50.002;22.014;2023-11-21T09:45:26;98502.84;;;8.82;85.45
65010;BME280;51556;50.002;22.014;2023-11-21T09:47:54;98504.14;;;8.85;85.10
65010;BME280;51556;50.002;22.014;2023-11-21T09:50:21;98502.34;;;8.87;85.45
65010;BME280;51556;50.002;22.014;2023-11-21T09:53:13;98504.13;;;8.86;85.43
65010;BME280;51556;50.002;22.014;2023-11-21T09:55:44;98505.06;;;8.84;85.54
65010;BME280;51556;50.002;22.014;2023-11-21T09:58:11;98501.87;;;8.85;85.00
65010;BME280;51556;50.002;22.014;2023-11-21T10:00:44;98501.12;;;8.87;85.06
65010;BME280;51556;50.002;22.014;2023-11-21T10:03:10;98500.98;;;8.85;85.09
65010;BME280;51556;50.002;22.014;2023-11-21T10:05:37;98501.84;;;8.86;85.14
65010;BME280;51556;50.002;22.014;2023-11-21T10:08:10;98507.88;;;8.89;85.44
65010;BME280;51556;50.002;22.014;2023-11-21T10:10:37;98509.66;;;8.93;85.12
65010;BME280;51556;50.002;22.014;2023-11-21T10:13:06;98509.94;;;8.95;85.25
65010;BME280;51556;50.002;22.014;2023-11-21T10:15:35;98512.92;;;8.95;85.11
65010;BME280;51556;50.002;22.014;2023-11-21T10:18:03;98516.65;;;8.94;85.24
65010;BME280;51556;50.002;22.014;2023-11-21T10:20:30;98513.79;;;8.91;84.89
65010;BME280;51556;50.002;22.014;2023-11-21T10:23:04;98515.71;;;8.91;85.28
65010;BME280;51556;50.002;22.014;2023-11-21T10:25:32;98522.34;;;8.97;85.65
65010;BME280;51556;50.002;22.014;2023-11-21T10:28:01;98520.36;;;8.98;85.00
65010;BME280;51556;50.002;22.014;2023-11-21T10:30:34;98526.54;;;9.03;85.30
65010;BME280;51556;50.002;22.014;2023-11-21T10:33:07;98522.95;;;9.05;85.38
65010;BME280;51556;50.002;22.014;2023-11-21T10:35:43;98525.37;;;9.12;85.22
65010;BME280;51556;50.002;22.014;2023-11-21T10:38:27;98525.58;;;9.17;84.70
65010;BME280;51556;50.002;22.014;2023-11-21T10:40:55;98530.40;;;9.19;84.64
65010;BME280;51556;50.002;22.014;2023-11-21T10:43:24;98533.34;;;9.21;84.01
65010;BME280;51556;50.002;22.014;2023-11-21T10:45:50;98535.20;;;9.18;83.48
65010;BME280;51556;50.002;22.014;2023-11-21T10:48:15;98534.63;;;9.14;83.29
65010;BME280;51556;50.002;22.014;2023-11-21T10:50:43;98533.80;;;9.12;83.11
65010;BME280;51556;50.002;22.014;2023-11-21T10:53:11;98534.36;;;9.11;82.84
65010;BME280;51556;50.002;22.014;2023-11-21T10:55:38;98538.90;;;9.12;82.81
65010;BME280;51556;50.002;22.014;2023-11-21T10:58:04;98540.20;;;9.10;82.98
65010;BME280;51556;50.002;22.014;2023-11-21T11:00:32;98540.13;;;9.12;83.12
65010;BME280;51556;50.002;22.014;2023-11-21T11:02:59;98547.30;;;9.13;82.48
65010;BME280;51556;50.002;22.014;2023-11-21T11:05:26;98547.63;;;9.13;82.54
65010;BME280;51556;50.002;22.014;2023-11-21T11:08:07;98546.02;;;9.14;82.62
65010;BME280;51556;50.002;22.014;2023-11-21T11:10:33;98552.60;;;9.17;81.94
65010;BME280;51556;50.002;22.014;2023-11-21T11:12:59;98551.20;;;9.17;81.46
65010;BME280;51556;50.002;22.014;2023-11-21T11:15:25;98550.70;;;9.16;81.57
65010;BME280;51556;50.002;22.014;2023-11-21T11:17:52;98551.48;;;9.14;81.07
65010;BME280;51556;50.002;22.014;2023-11-21T11:20:33;98556.27;;;9.06;81.28
65010;BME280;51556;50.002;22.014;2023-11-21T11:26:08;98561.61;;;8.99;80.73
65010;BME280;51556;50.002;22.014;2023-11-21T11:31:31;98566.59;;;8.91;80.91
65010;BME280;51556;50.002;22.014;2023-11-21T11:34:19;98569.90;;;8.87;80.49
65010;BME280;51556;50.002;22.014;2023-11-21T11:37:08;98571.23;;;8.84;80.99
65010;BME280;51556;50.002;22.014;2023-11-21T11:39:42;98573.42;;;8.81;80.65
65010;BME280;51556;50.002;22.014;2023-11-21T11:42:17;98575.64;;;8.77;80.52
65010;BME280;51556;50.002;22.014;2023-11-21T11:47:31;98578.89;;;8.75;80.61
65010;BME280;51556;50.002;22.014;2023-11-21T11:52:52;98581.31;;;8.69;80.20
65010;BME280;51556;50.002;22.014;2023-11-21T11:55:24;98582.46;;;8.66;80.44
65010;BME280;51556;50.002;22.014;2023-11-21T11:57:52;98583.83;;;8.67;80.43
65010;BME280;51556;50.002;22.014;2023-11-21T12:02:54;98584.59;;;8.71;80.14
65010;BME280;51556;50.002;22.014;2023-11-21T12:05:23;98583.52;;;8.72;80.44
65010;BME280;51556;50.002;22.014;2023-11-21T12:07:53;98587.02;;;8.72;80.29
65010;BME280;51556;50.002;22.014;2023-11-21T12:10:20;98587.23;;;8.71;80.19
65010;BME280;51556;50.002;22.014;2023-11-21T12:12:52;98589.92;;;8.69;80.00
65010;BME280;51556;50.002;22.014;2023-11-21T12:15:18;98590.79;;;8.69;80.31
65010;BME280;51556;50.002;22.014;2023-11-21T12:17:45;98591.06;;;8.72;80.55
65010;BME280;51556;50.002;22.014;2023-11-21T12:20:14;98589.73;;;8.76;80.47
65010;BME280;51556;50.002;22.014;2023-11-21T12:22:44;98593.10;;;8.75;80.17
65010;BME280;51556;50.002;22.014;2023-11-21T12:25:17;98596.56;;;8.76;80.54
65010;BME280;51556;50.002;22.014;2023-11-21T12:27:48;98599.11;;;8.79;80.27
65010;BME280;51556;50.002;22.014;2023-11-21T12:30:16;98596.45;;;8.80;80.49
65010;BME280;51556;50.002;22.014;2023-11-21T12:32:51;98596.95;;;8.81;80.29
65010;BME280;51556;50.002;22.014;2023-11-21T12:35:18;98601.46;;;8.82;80.10
65010;BME280;51556;50.002;22.014;2023-11-21T12:37:47;98602.19;;;8.76;80.08
65010;BME280;51556;50.002;22.014;2023-11-21T12:40:14;98605.13;;;8.77;79.89
65010;BME280;51556;50.002;22.014;2023-11-21T12:42:46;98604.05;;;8.78;80.60
65010;BME280;51556;50.002;22.014;2023-11-21T12:47:50;98615.23;;;8.74;79.81
65010;BME280;51556;50.002;22.014;2023-11-21T12:50:20;98619.44;;;8.74;80.08
65010;BME280;51556;50.002;22.014;2023-11-21T12:52:49;98626.10;;;8.74;80.32
65010;BME280;51556;50.002;22.014;2023-11-21T12:55:16;98628.45;;;8.78;80.11
65010;BME280;51556;50.002;22.014;2023-11-21T12:57:47;98632.42;;;8.80;79.88
65010;BME280;51556;50.002;22.014;2023-11-21T13:00:15;98635.56;;;8.81;79.82
65010;BME280;51556;50.002;22.014;2023-11-21T13:02:55;98638.55;;;8.81;79.73
65010;BME280;51556;50.002;22.014;2023-11-21T13:05:28;98640.44;;;8.82;79.90
65010;BME280;51556;50.002;22.014;2023-11-21T13:08:02;98644.98;;;8.83;79.49
65010;BME280;51556;50.002;22.014;2023-11-21T13:10:39;98643.02;;;8.83;79.51
65010;BME280;51556;50.002;22.014;2023-11-21T13:13:06;98640.83;;;8.81;79.51
65010;BME280;51556;50.002;22.014;2023-11-21T13:16:04;98645.08;;;8.79;79.47
65010;BME280;51556;50.002;22.014;2023-11-21T13:18:36;98646.66;;;8.79;79.64